createdAt,value
2023-05-10T00:00:08.237Z,4.00
2023-05-10T00:02:37.209Z,3.90
2023-05-10T00:05:07.296Z,4.50
2023-05-10T00:07:36.678Z,3.70
2023-05-10T00:10:06.053Z,3.70
2023-05-10T00:12:34.957Z,3.90
2023-05-10T00:15:05.677Z,3.70
2023-05-10T00:17:34.615Z,3.60
2023-05-10T00:20:07.285Z,3.60
2023-05-10T00:22:39.476Z,3.50
2023-05-10T00:25:09.729Z,3.70
2023-05-10T00:27:39.163Z,3.10
2023-05-10T00:30:09.180Z,3.40
2023-05-10T00:32:38.098Z,4.50
2023-05-10T00:35:07.615Z,3.80
2023-05-10T00:37:36.723Z,3.20
2023-05-10T00:40:06.906Z,4.70
2023-05-10T00:42:36.040Z,4.00
2023-05-10T00:45:05.427Z,3.80
2023-05-10T00:47:35.481Z,3.50
2023-05-10T00:50:05.375Z,3.70
2023-05-10T00:52:34.638Z,3.20
2023-05-10T00:55:05.431Z,3.80
2023-05-10T00:57:34.746Z,3.40
2023-05-10T01:00:05.329Z,3.80
2023-05-10T01:02:36.712Z,3.40
2023-05-10T01:05:07.195Z,3.30
2023-05-10T01:07:36.071Z,3.20
2023-05-10T01:10:05.081Z,3.70
2023-05-10T01:12:36.414Z,3.10
2023-05-10T01:15:07.411Z,3.40
2023-05-10T01:17:40.253Z,3.10
2023-05-10T01:20:12.906Z,3.20
2023-05-10T01:23:29.709Z,2.80
2023-05-10T01:26:46.844Z,2.80
2023-05-10T01:30:05.056Z,2.40
2023-05-10T01:33:26.720Z,3.70
2023-05-10T01:36:19.116Z,4.90
2023-05-10T01:38:54.095Z,3.10
2023-05-10T01:41:55.016Z,4.40
2023-05-10T01:47:28.220Z,4.00
2023-05-10T01:50:02.717Z,3.40
2023-05-10T01:52:45.849Z,3.70
2023-05-10T01:55:24.437Z,2.80
2023-05-10T01:58:14.126Z,3.20
2023-05-10T02:00:49.725Z,2.80
2023-05-10T02:03:23.282Z,3.20
2023-05-10T02:05:55.367Z,3.20
2023-05-10T02:08:26.318Z,3.40
2023-05-10T02:10:58.819Z,3.90
2023-05-10T02:13:32.102Z,3.40
2023-05-10T02:16:04.019Z,3.60
2023-05-10T02:18:35.218Z,3.40
2023-05-10T02:21:05.780Z,3.70
2023-05-10T02:23:37.164Z,4.00
2023-05-10T02:26:11.706Z,3.50
2023-05-10T02:28:42.695Z,3.10
2023-05-10T02:31:13.952Z,2.50
2023-05-10T02:33:45.334Z,2.80
2023-05-10T02:36:16.570Z,2.70
2023-05-10T02:38:48.174Z,2.70
2023-05-10T02:41:17.870Z,3.10
2023-05-10T02:43:48.719Z,2.80
2023-05-10T02:46:17.813Z,3.10
2023-05-10T02:48:47.331Z,3.60
2023-05-10T02:51:21.101Z,3.50
2023-05-10T02:53:53.188Z,3.30
2023-05-10T02:56:37.104Z,3.10
2023-05-10T02:59:07.032Z,2.30
2023-05-10T03:01:44.452Z,3.10
2023-05-10T03:04:13.825Z,3.00
2023-05-10T03:06:45.392Z,3.50
2023-05-10T03:09:17.603Z,3.10
2023-05-10T03:12:13.691Z,2.90
2023-05-10T03:15:14.057Z,2.60
2023-05-10T03:18:13.425Z,3.10
2023-05-10T03:20:50.708Z,2.80
2023-05-10T03:23:48.472Z,2.50
2023-05-10T03:26:26.069Z,3.50
2023-05-10T03:28:58.079Z,3.00
2023-05-10T03:31:27.466Z,2.90
2023-05-10T03:33:56.850Z,3.20
2023-05-10T03:36:29.098Z,3.20
2023-05-10T03:38:58.405Z,3.10
2023-05-10T03:41:28.041Z,3.30
2023-05-10T03:44:00.034Z,3.00
2023-05-10T03:46:38.858Z,2.90
2023-05-10T03:49:16.325Z,2.40
2023-05-10T03:52:08.294Z,2.30
2023-05-10T03:55:08.107Z,2.50
2023-05-10T03:58:08.612Z,2.90
2023-05-10T04:00:49.317Z,2.50
2023-05-10T04:03:33.218Z,2.80
2023-05-10T04:06:12.878Z,2.80
2023-05-10T04:08:42.469Z,2.60
2023-05-10T04:11:14.898Z,2.30
2023-05-10T04:13:53.518Z,2.60
2023-05-10T04:16:32.060Z,2.50
2023-05-10T04:19:02.103Z,3.00
2023-05-10T04:21:34.972Z,2.30
2023-05-10T04:24:10.389Z,2.40
2023-05-10T04:26:48.293Z,2.70
2023-05-10T04:29:27.591Z,2.90
2023-05-10T04:32:11.231Z,2.50
2023-05-10T04:34:45.189Z,2.60
2023-05-10T04:37:16.390Z,2.80
2023-05-10T04:40:02.886Z,2.80
2023-05-10T04:43:08.211Z,2.40
2023-05-10T04:45:46.366Z,2.60
2023-05-10T04:48:30.944Z,2.70
2023-05-10T04:51:06.764Z,2.90
2023-05-10T04:54:01.537Z,2.50
2023-05-10T05:07:20.386Z,2.10
2023-05-10T05:09:49.438Z,1.90
2023-05-10T05:12:18.775Z,2.20
2023-05-10T05:14:47.834Z,2.10
2023-05-10T05:17:17.222Z,1.90
2023-05-10T05:19:46.959Z,2.30
2023-05-10T05:22:29.588Z,2.20
2023-05-10T05:25:04.459Z,2.00
2023-05-10T05:27:37.338Z,1.70
2023-05-10T05:30:07.243Z,1.60
2023-05-10T05:32:36.849Z,1.90
2023-05-10T05:35:07.033Z,1.80
2023-05-10T05:37:37.241Z,2.30
2023-05-10T05:40:07.782Z,1.60
2023-05-10T05:42:37.020Z,1.90
2023-05-10T05:45:06.481Z,1.90
2023-05-10T05:47:35.875Z,2.20
2023-05-10T05:50:05.393Z,2.00
2023-05-10T05:52:34.704Z,1.90
2023-05-10T05:55:04.949Z,1.90
2023-05-10T05:57:34.446Z,2.00
2023-05-10T06:00:05.161Z,2.10
2023-05-10T06:02:38.674Z,2.10
2023-05-10T06:05:08.984Z,2.20
2023-05-10T06:07:41.655Z,1.80
2023-05-10T06:10:12.127Z,2.00
2023-05-10T06:12:41.862Z,2.10
2023-05-10T06:15:16.259Z,2.20
2023-05-10T06:17:46.420Z,1.80
2023-05-10T06:20:25.254Z,1.70
2023-05-10T06:22:54.747Z,1.70
2023-05-10T06:25:24.496Z,1.70
2023-05-10T06:27:59.053Z,1.90
2023-05-10T06:30:30.581Z,1.90
2023-05-10T06:33:00.146Z,1.50
2023-05-10T06:35:33.315Z,2.30
2023-05-10T06:38:02.814Z,1.90
2023-05-10T06:40:32.121Z,1.90
2023-05-10T06:43:01.472Z,1.60
2023-05-10T06:45:31.522Z,1.90
2023-05-10T06:48:04.499Z,1.80
2023-05-10T06:50:34.323Z,1.80
2023-05-10T06:53:06.787Z,1.70
2023-05-10T06:55:35.952Z,1.90
2023-05-10T06:58:28.195Z,1.80
2023-05-10T07:01:03.819Z,2.00
2023-05-10T07:03:33.669Z,2.10
2023-05-10T07:06:13.394Z,1.80
2023-05-10T07:08:48.479Z,1.70
2023-05-10T07:11:18.036Z,2.00
2023-05-10T07:13:48.420Z,1.80
2023-05-10T07:16:21.056Z,2.00
2023-05-10T07:18:50.438Z,1.60
2023-05-10T07:21:20.239Z,1.70
2023-05-10T07:23:49.784Z,1.60
2023-05-10T07:26:28.220Z,2.00
2023-05-10T07:29:00.154Z,2.00
2023-05-10T07:31:32.824Z,1.70
2023-05-10T07:34:02.652Z,1.60
2023-05-10T07:36:41.354Z,1.60
2023-05-10T07:39:11.565Z,1.70
2023-05-10T07:41:43.952Z,1.90
2023-05-10T07:44:22.764Z,1.90
2023-05-10T07:46:55.585Z,1.60
2023-05-10T07:49:26.301Z,1.80
2023-05-10T07:51:55.328Z,1.80
2023-05-10T07:54:24.313Z,1.80
2023-05-10T07:56:54.371Z,2.20
2023-05-10T07:59:26.306Z,1.70
2023-05-10T08:01:55.419Z,1.80
2023-05-10T08:04:24.405Z,1.90
2023-05-10T08:06:53.412Z,1.60
2023-05-10T08:09:25.746Z,1.20
2023-05-10T08:11:54.798Z,1.70
2023-05-10T08:14:23.851Z,1.50
2023-05-10T08:16:52.888Z,1.80
2023-05-10T08:19:23.298Z,2.00
2023-05-10T08:21:52.398Z,2.00
2023-05-10T08:24:21.410Z,1.70
2023-05-10T08:26:50.639Z,1.80
2023-05-10T08:29:20.174Z,1.80
2023-05-10T08:31:49.307Z,1.80
2023-05-10T08:34:18.736Z,1.80
2023-05-10T08:36:47.786Z,1.50
2023-05-10T08:39:26.820Z,1.70
2023-05-10T08:42:05.632Z,2.00
2023-05-10T08:44:38.763Z,1.90
2023-05-10T08:47:12.809Z,1.90
2023-05-10T08:49:43.304Z,1.60
2023-05-10T08:52:17.195Z,2.50
2023-05-10T08:54:49.972Z,2.20
2023-05-10T08:57:18.998Z,1.80
2023-05-10T08:59:49.054Z,1.80
2023-05-10T09:02:20.707Z,1.80
2023-05-10T09:04:51.057Z,1.80
2023-05-10T09:07:21.233Z,1.80
2023-05-10T09:09:54.175Z,1.90
2023-05-10T09:12:23.592Z,1.90
2023-05-10T09:14:56.432Z,1.70
2023-05-10T09:17:36.215Z,1.50
2023-05-10T09:20:09.350Z,1.80
2023-05-10T09:22:43.873Z,1.80
2023-05-10T09:25:19.659Z,1.70
2023-05-10T09:27:50.469Z,1.70
2023-05-10T09:30:27.859Z,1.80
2023-05-10T09:32:59.100Z,2.10
2023-05-10T09:35:31.376Z,1.90
2023-05-10T09:38:07.098Z,1.80
2023-05-10T09:40:39.056Z,1.50
2023-05-10T09:43:13.446Z,1.80
2023-05-10T09:45:44.572Z,1.90
2023-05-10T09:48:13.786Z,2.10
2023-05-10T09:51:00.369Z,1.70
2023-05-10T09:53:29.623Z,1.60
2023-05-10T09:55:58.618Z,1.90
2023-05-10T09:58:30.531Z,1.70
2023-05-10T10:00:59.930Z,1.70
2023-05-10T10:03:30.364Z,1.50
2023-05-10T10:05:59.856Z,1.50
2023-05-10T10:08:29.837Z,1.80
2023-05-10T10:11:02.415Z,1.90
2023-05-10T10:13:34.005Z,1.90
2023-05-10T10:16:03.237Z,1.80
2023-05-10T10:18:33.885Z,1.40
2023-05-10T10:21:04.731Z,1.60
2023-05-10T10:23:37.901Z,1.90
2023-05-10T10:26:08.286Z,1.50
2023-05-10T10:28:54.462Z,1.80
2023-05-10T10:32:30.286Z,1.80
2023-05-10T10:34:59.974Z,1.90
2023-05-10T10:37:47.818Z,1.70
2023-05-10T10:40:46.145Z,1.50
2023-05-10T10:43:29.542Z,1.50
2023-05-10T10:46:23.402Z,1.80
2023-05-10T10:49:12.449Z,1.60
2023-05-10T10:51:42.762Z,2.00
2023-05-10T10:54:13.273Z,1.70
2023-05-10T10:56:44.786Z,1.90
2023-05-10T10:59:13.852Z,1.80
2023-05-10T11:01:46.602Z,1.60
2023-05-10T11:04:15.620Z,1.70
2023-05-10T11:06:48.763Z,2.10
2023-05-10T11:09:17.844Z,1.60
2023-05-10T11:11:58.426Z,2.00
2023-05-10T11:14:33.935Z,1.60
2023-05-10T11:17:04.571Z,1.70
2023-05-10T11:19:33.632Z,1.90
2023-05-10T11:22:07.953Z,1.90
2023-05-10T11:24:37.896Z,2.10
2023-05-10T11:27:07.918Z,2.00
2023-05-10T11:29:37.207Z,1.90
2023-05-10T11:32:10.138Z,2.00
2023-05-10T11:34:39.252Z,1.80
2023-05-10T11:37:08.396Z,1.60
2023-05-10T11:39:37.308Z,1.60
2023-05-10T11:42:07.293Z,1.90
2023-05-10T11:44:36.401Z,2.00
2023-05-10T11:47:06.176Z,1.90
2023-05-10T11:49:35.109Z,1.60
2023-05-10T11:52:11.136Z,1.70
2023-05-10T11:54:40.205Z,1.60
2023-05-10T11:57:09.071Z,2.20
2023-05-10T11:59:40.275Z,1.60
2023-05-10T12:02:10.819Z,1.80
2023-05-10T12:04:40.138Z,1.70
2023-05-10T12:07:09.328Z,1.90
2023-05-10T12:09:58.287Z,2.20
2023-05-10T12:12:27.382Z,1.90
2023-05-10T12:14:56.383Z,1.90
2023-05-10T12:17:30.333Z,1.70
2023-05-10T12:20:23.055Z,1.80
2023-05-10T12:23:00.518Z,1.50
2023-05-10T12:25:34.934Z,1.60
2023-05-10T12:28:08.319Z,2.10
2023-05-10T12:30:40.184Z,1.50
2023-05-10T12:33:16.920Z,1.90
2023-05-10T12:35:58.348Z,1.90
2023-05-10T12:38:34.975Z,1.70
2023-05-10T12:41:10.756Z,1.90
2023-05-10T12:43:41.232Z,1.70
2023-05-10T12:46:12.956Z,2.00
2023-05-10T12:48:43.694Z,1.80
2023-05-10T12:51:15.030Z,1.60
2023-05-10T12:53:46.082Z,1.90
2023-05-10T12:56:16.900Z,1.50
2023-05-10T12:58:50.030Z,2.00
2023-05-10T13:01:19.254Z,1.80
2023-05-10T13:03:48.588Z,1.70
2023-05-10T13:06:17.625Z,1.70
2023-05-10T13:08:46.818Z,1.90
2023-05-10T13:11:19.424Z,1.60
2023-05-10T13:13:48.726Z,1.80
2023-05-10T13:16:18.407Z,1.80
2023-05-10T13:18:47.931Z,1.80
2023-05-10T13:21:16.820Z,1.60
2023-05-10T13:23:45.805Z,1.90
2023-05-10T13:26:15.272Z,1.90
2023-05-10T13:28:44.257Z,2.10
2023-05-10T13:31:13.355Z,1.50
2023-05-10T13:33:42.338Z,1.80
2023-05-10T13:36:11.483Z,2.00
2023-05-10T13:38:40.572Z,2.10
2023-05-10T13:41:09.772Z,1.50
2023-05-10T13:43:41.870Z,1.80
2023-05-10T13:46:10.841Z,1.70
2023-05-10T13:48:39.790Z,2.10
2023-05-10T13:51:09.045Z,2.00
2023-05-10T13:53:38.781Z,1.90
2023-05-10T13:56:08.539Z,1.70
2023-05-10T13:58:38.531Z,1.70
2023-05-10T14:01:08.601Z,1.90
2023-05-10T14:03:37.921Z,1.90
2023-05-10T14:06:07.114Z,2.00
2023-05-10T14:08:38.005Z,1.90
2023-05-10T14:11:10.597Z,1.50
2023-05-10T14:13:39.699Z,2.10
2023-05-10T14:16:09.219Z,2.10
2023-05-10T14:18:38.314Z,2.00
2023-05-10T14:21:09.363Z,1.80
2023-05-10T14:23:38.327Z,2.10
2023-05-10T14:26:08.389Z,2.10
2023-05-10T14:28:37.226Z,2.20
2023-05-10T14:31:08.715Z,1.70
2023-05-10T14:33:37.626Z,2.30
2023-05-10T14:36:06.769Z,1.90
2023-05-10T14:38:35.810Z,1.80
2023-05-10T14:41:04.997Z,2.40
2023-05-10T14:43:34.374Z,2.00
2023-05-10T14:46:03.448Z,2.00
2023-05-10T14:48:32.442Z,2.40
2023-05-10T14:51:04.439Z,2.30
2023-05-10T14:53:34.675Z,2.00
2023-05-10T14:56:04.797Z,1.70
2023-05-10T14:58:34.244Z,1.80
2023-05-10T15:01:03.554Z,2.10
2023-05-10T15:03:32.840Z,2.10
2023-05-10T15:06:02.263Z,2.40
2023-05-10T15:08:31.199Z,2.40
2023-05-10T15:11:00.164Z,2.10
2023-05-10T15:13:28.961Z,2.40
2023-05-10T15:15:57.804Z,2.40
2023-05-10T15:18:26.931Z,2.30
2023-05-10T15:20:55.806Z,2.50
2023-05-10T15:23:24.889Z,2.30
2023-05-10T15:25:57.586Z,2.30
2023-05-10T15:28:27.287Z,2.40
2023-05-10T15:31:00.116Z,2.50
2023-05-10T15:33:29.568Z,2.40
2023-05-10T15:35:58.548Z,2.10
2023-05-10T15:38:27.770Z,2.00
2023-05-10T15:41:00.735Z,2.30
2023-05-10T15:43:29.655Z,2.40
2023-05-10T15:45:58.685Z,2.20
2023-05-10T15:48:29.418Z,2.00
2023-05-10T15:50:58.733Z,2.10
2023-05-10T15:53:27.988Z,2.70
2023-05-10T15:55:57.021Z,2.40
2023-05-10T15:58:26.000Z,2.40
2023-05-10T16:00:54.956Z,2.60
2023-05-10T16:03:24.035Z,2.90
2023-05-10T16:05:53.304Z,4.40
2023-05-10T16:08:22.625Z,3.80
2023-05-10T16:10:54.328Z,5.40
2023-05-10T16:13:23.526Z,7.00
2023-05-10T16:15:52.589Z,7.30
2023-05-10T16:18:21.535Z,3.40
2023-05-10T16:20:51.715Z,3.00
2023-05-10T16:23:20.934Z,3.10
2023-05-10T16:25:49.907Z,2.80
2023-05-10T16:28:20.526Z,2.80
2023-05-10T16:30:50.128Z,3.50
2023-05-10T16:33:19.167Z,2.80
2023-05-10T16:35:48.077Z,2.90
2023-05-10T16:38:17.011Z,3.30
2023-05-10T16:40:45.926Z,3.20
2023-05-10T16:43:14.883Z,3.80
2023-05-10T16:45:43.834Z,3.70
2023-05-10T16:48:12.721Z,3.20
2023-05-10T16:50:45.960Z,3.20
2023-05-10T16:53:15.219Z,3.60
2023-05-10T16:55:44.290Z,3.00
2023-05-10T16:58:13.303Z,3.40
2023-05-10T17:00:46.272Z,3.20
2023-05-10T17:03:15.246Z,3.40
2023-05-10T17:05:47.991Z,3.50
2023-05-10T17:08:21.327Z,3.50
2023-05-10T17:11:10.991Z,3.90
2023-05-10T17:13:40.035Z,3.80
2023-05-10T17:16:09.274Z,3.50
2023-05-10T17:18:38.346Z,3.60
2023-05-10T17:21:07.219Z,4.40
2023-05-10T17:23:36.272Z,4.10
2023-05-10T17:26:09.161Z,3.40
2023-05-10T17:28:38.293Z,4.30
2023-05-10T17:31:07.206Z,4.00
2023-05-10T17:33:36.141Z,4.10
2023-05-10T17:36:05.127Z,4.00
2023-05-10T17:38:33.859Z,4.00
2023-05-10T17:41:03.147Z,4.10
2023-05-10T17:43:32.040Z,4.80
2023-05-10T17:46:01.012Z,4.40
2023-05-10T17:48:30.111Z,4.90
2023-05-10T17:50:59.312Z,4.50
2023-05-10T17:53:28.281Z,5.10
2023-05-10T17:56:02.196Z,4.40
2023-05-10T17:58:31.335Z,4.80
2023-05-10T18:01:00.349Z,5.30
2023-05-10T18:03:29.414Z,4.90
2023-05-10T18:06:01.940Z,4.80
2023-05-10T18:08:31.544Z,4.80
2023-05-10T18:11:00.542Z,5.00
2023-05-10T18:13:29.671Z,5.50
2023-05-10T18:16:01.179Z,4.90
2023-05-10T18:18:30.218Z,5.10
2023-05-10T18:20:59.625Z,4.90
2023-05-10T18:23:28.755Z,5.10
2023-05-10T18:25:58.839Z,5.40
2023-05-10T18:28:27.780Z,5.40
2023-05-10T18:30:56.689Z,4.60
2023-05-10T18:33:25.688Z,4.90
2023-05-10T18:35:54.664Z,4.60
2023-05-10T18:38:23.732Z,4.70
2023-05-10T18:40:52.584Z,4.90
2023-05-10T18:43:21.612Z,5.20
2023-05-10T18:45:52.077Z,4.70
2023-05-10T18:48:21.055Z,4.60
2023-05-10T18:50:50.060Z,4.60
2023-05-10T18:53:19.080Z,4.30
2023-05-10T18:55:47.950Z,4.30
2023-05-10T18:58:16.771Z,4.50
2023-05-10T19:00:45.593Z,4.70
2023-05-10T19:03:14.326Z,4.20
2023-05-10T19:05:43.128Z,4.90
2023-05-10T19:08:12.086Z,4.90
2023-05-10T19:10:40.950Z,4.90
2023-05-10T19:13:10.032Z,4.80
2023-05-10T19:15:39.687Z,5.00
2023-05-10T19:18:09.689Z,5.70
2023-05-10T19:20:40.869Z,4.80
2023-05-10T19:23:11.225Z,4.50
2023-05-10T19:25:40.341Z,4.90
2023-05-10T19:28:09.983Z,4.70
2023-05-10T19:30:39.101Z,4.80
2023-05-10T19:33:07.986Z,4.80
2023-05-10T19:35:38.395Z,5.10
2023-05-10T19:38:07.835Z,4.70
2023-05-10T19:40:37.161Z,4.80
2023-05-10T19:43:06.062Z,4.70
2023-05-10T19:45:35.423Z,4.20
2023-05-10T19:48:04.742Z,5.10
2023-05-10T19:50:33.672Z,5.00
2023-05-10T19:53:02.676Z,5.40
2023-05-10T19:55:33.827Z,4.60
2023-05-10T19:58:03.018Z,5.00
2023-05-10T20:00:32.763Z,4.80
2023-05-10T20:03:03.066Z,5.00
2023-05-10T20:05:31.929Z,5.10
2023-05-10T20:08:01.068Z,4.90
2023-05-10T20:10:30.116Z,4.50
2023-05-10T20:13:00.271Z,4.70
2023-05-10T20:15:31.322Z,4.40
2023-05-10T20:18:00.201Z,4.30
2023-05-10T20:20:29.269Z,4.10
2023-05-10T20:22:58.315Z,4.50
2023-05-10T20:25:27.354Z,4.20
2023-05-10T20:27:56.690Z,4.10
2023-05-10T20:30:25.671Z,4.40
2023-05-10T20:32:54.700Z,4.40
2023-05-10T20:35:23.594Z,4.40
2023-05-10T20:37:53.127Z,4.30
2023-05-10T20:40:22.140Z,3.40
2023-05-10T20:42:53.015Z,4.20
2023-05-10T20:45:22.425Z,3.70
2023-05-10T20:47:51.318Z,4.00
2023-05-10T20:50:23.505Z,3.90
2023-05-10T20:52:53.269Z,4.10
2023-05-10T20:55:25.029Z,4.00
2023-05-10T20:57:53.884Z,4.70
2023-05-10T21:00:23.163Z,4.60
2023-05-10T21:02:52.265Z,4.30
2023-05-10T21:05:21.630Z,3.80
2023-05-10T21:07:52.338Z,6.00
2023-05-10T21:10:22.560Z,4.00
2023-05-10T21:12:51.509Z,4.30
2023-05-10T21:15:20.564Z,4.00
2023-05-10T21:17:49.843Z,3.60
2023-05-10T21:20:19.124Z,4.40
2023-05-10T21:22:48.288Z,4.30
2023-05-10T21:25:17.304Z,4.40
2023-05-10T21:27:46.878Z,4.60
2023-05-10T21:30:16.534Z,4.50
2023-05-10T21:32:45.791Z,4.00
2023-05-10T21:35:14.551Z,4.30
2023-05-10T21:37:43.756Z,4.50
2023-05-10T21:40:14.023Z,4.50
2023-05-10T21:42:45.541Z,5.00
2023-05-10T21:45:14.650Z,4.10
2023-05-10T21:47:43.950Z,5.10
2023-05-10T21:50:14.319Z,4.40
2023-05-10T21:52:43.860Z,4.60
2023-05-10T21:55:12.792Z,4.90
2023-05-10T21:57:42.314Z,4.60
2023-05-10T22:00:12.803Z,4.20
2023-05-10T22:02:42.256Z,3.90
2023-05-10T22:05:12.752Z,4.00
2023-05-10T22:07:41.895Z,4.50
2023-05-10T22:10:15.757Z,4.10
2023-05-10T22:12:44.819Z,4.20
2023-05-10T22:15:13.732Z,4.10
2023-05-10T22:17:42.705Z,4.30
2023-05-10T22:20:12.004Z,4.50
2023-05-10T22:22:40.835Z,4.20
2023-05-10T22:25:10.297Z,4.50
2023-05-10T22:27:39.493Z,4.40
2023-05-10T22:30:09.732Z,4.40
2023-05-10T22:32:38.617Z,4.50
2023-05-10T22:35:08.339Z,4.40
2023-05-10T22:37:37.694Z,5.00
2023-05-10T22:40:07.502Z,4.40
2023-05-10T22:42:36.419Z,4.60
2023-05-10T22:45:05.755Z,4.40
2023-05-10T22:47:34.777Z,4.50
2023-05-10T22:50:06.498Z,4.20
2023-05-10T22:52:35.896Z,4.20
2023-05-10T22:55:04.891Z,4.40
2023-05-10T22:57:34.027Z,4.80
2023-05-10T23:00:05.491Z,4.30
2023-05-10T23:02:34.503Z,4.50
2023-05-10T23:05:03.738Z,4.40
2023-05-10T23:07:32.641Z,4.70
2023-05-10T23:10:01.467Z,4.90
2023-05-10T23:12:32.323Z,4.60
2023-05-10T23:15:03.711Z,4.30
2023-05-10T23:17:32.693Z,4.50
2023-05-10T23:20:01.426Z,3.90
2023-05-10T23:22:30.251Z,4.60
2023-05-10T23:24:59.087Z,4.30
2023-05-10T23:27:32.091Z,4.00
2023-05-10T23:30:01.000Z,3.70
2023-05-10T23:32:29.936Z,3.90
2023-05-10T23:34:58.881Z,4.00
2023-05-10T23:37:27.774Z,3.70
2023-05-10T23:39:56.558Z,3.50
2023-05-10T23:42:25.399Z,3.90
2023-05-10T23:44:54.278Z,3.80
2023-05-10T23:47:23.266Z,3.80
2023-05-10T23:49:52.726Z,3.50
2023-05-10T23:52:26.059Z,3.10
2023-05-10T23:54:55.791Z,3.30
2023-05-10T23:57:25.036Z,3.50
2023-05-10T23:59:53.940Z,3.10
